Time;durP1;ratioP1;P1;durP2;ratioP2;P2;SDS_P1;SDS_P2;PMS_P1;PMS_P2;Temp;Humidity;BMP_temperature;BMP_pressure;BME280_temperature;BME280_humidity;BME280_pressure;Samples;Min_cycle;Max_cycle;Signal;HPM_P1;HPM_P2
2023/10/27 09:41:36;;;;;;;1.35;0.73;;;;;;;8.86;100.00;94740.16;2081460;28;20561;-75
2023/10/27 09:42:41;;;;;;;2.63;0.70;;;;;;;10.05;100.00;94744.84;2079414;28;20296;-75
2023/10/27 09:43:43;;;;;;;2.08;0.75;;;;;;;10.53;100.00;94741.38;2082055;28;20200;-76
2023/10/27 09:44:57;;;;;;;1.73;0.80;;;;;;;10.15;100.00;94739.00;2077290;28;20194;-75
2023/10/27 10:09:14;;;;;;;4.22;2.15;;;;;;;9.20;100.00;94771.69;2102719;27;21097;-75
2023/10/27 10:14:04;;;;;;;4.00;0.90;;;;;;;9.13;100.00;94776.50;2082672;28;20569;-76
2023/10/27 10:16:44;;;;;;;2.45;1.23;;;;;;;9.25;100.00;94773.97;2081373;28;20553;-76
2023/10/27 10:17:47;;;;;;;2.60;0.70;;;;;;;9.27;100.00;94772.94;2078096;28;20197;-76
2023/10/27 10:18:48;;;;;;;2.65;0.80;;;;;;;9.56;100.00;94770.06;2078722;28;20190;-76
2023/10/27 10:19:51;;;;;;;3.15;0.80;;;;;;;9.56;100.00;94764.84;2078318;28;20196;-75
2023/10/27 10:20:57;;;;;;;2.75;0.73;;;;;;;10.32;100.00;94767.25;2082113;28;20590;-76
2023/10/27 10:22:00;;;;;;;1.20;0.70;;;;;;;11.25;99.27;94771.63;2077010;28;20216;-76
2023/10/27 10:23:01;;;;;;;2.50;0.80;;;;;;;11.25;99.27;94771.63;2078905;28;20280;-75
2023/10/27 10:24:03;;;;;;;3.75;1.15;;;;;;;-145.49;100.00;55703.94;2080538;28;20339;-76
2023/10/27 10:25:14;;;;;;;2.33;0.90;;;;;;;-145.49;100.00;55703.94;2079030;28;20641;-75
2023/10/27 10:26:16;;;;;;;2.33;0.90;;;;;;;11.25;99.27;94771.63;2079748;28;20190;-74
2023/10/27 10:27:19;;;;;;;3.40;0.80;;;;;;;-145.49;100.00;55703.94;2079785;28;20205;-76
2023/10/27 10:28:21;;;;;;;6.15;0.90;;;;;;;-145.49;100.00;55703.94;2080054;28;20192;-76
2023/10/27 10:29:29;;;;;;;7.30;1.38;;;;;;;-145.49;100.00;55703.94;2077647;28;20231;-76
2023/10/27 10:30:41;;;;;;;2.60;0.70;;;;;;;-145.49;100.00;55703.94;2077778;28;20238;-76
2023/10/27 10:31:43;;;;;;;2.45;0.90;;;;;;;-145.49;100.00;55703.94;2077577;28;20239;-76
2023/10/27 10:32:45;;;;;;;3.70;0.90;;;;;;;-145.49;100.00;55703.94;2078086;28;20216;-76
2023/10/27 10:33:48;;;;;;;7.90;0.90;;;;;;;-145.49;100.00;55703.94;2079069;28;20265;-76
2023/10/27 10:35:19;;;;;;;1.92;0.77;;;;;;;-145.49;100.00;55703.94;2078779;28;20236;-76
2023/10/27 10:36:25;;;;;;;1.85;0.75;;;;;;;-145.49;100.00;55703.94;2077164;28;20232;-74
2023/10/27 10:37:28;;;;;;;2.30;0.73;;;;;;;-145.49;100.00;55703.94;2077916;28;20251;-74
2023/10/27 10:38:43;;;;;;;1.98;0.68;;;;;;;-145.49;100.00;55703.94;2078745;28;20208;-75
2023/10/27 10:40:20;;;;;;;2.40;0.90;;;;;;;11.25;99.27;94771.63;2079364;28;20192;-75
2023/10/27 10:41:47;;;;;;;2.60;0.68;;;;;;;11.25;99.27;94771.63;2077959;28;20669;-74
2023/10/27 10:43:20;;;;;;;1.85;0.95;;;;;;;11.25;99.27;94771.63;2078279;28;20193;-74
2023/10/27 10:44:22;;;;;;;1.70;0.60;;;;;;;11.25;99.27;94771.63;2077812;28;20191;-75
2023/10/27 10:45:23;;;;;;;1.40;0.90;;;;;;;11.25;99.27;94771.63;2078591;28;20584;-74
2023/10/27 10:46:29;;;;;;;4.72;0.85;;;;;;;11.25;99.27;94771.63;2077890;28;20250;-74
2023/10/27 10:47:30;;;;;;;4.00;0.80;;;;;;;11.25;99.27;94771.63;2079351;28;20288;-74
2023/10/27 10:48:34;;;;;;;2.28;0.70;;;;;;;11.25;99.27;94771.63;2080500;28;20246;-74
2023/10/27 10:49:40;;;;;;;1.90;0.90;;;;;;;11.25;99.27;94771.63;2079932;28;20228;-74
2023/10/27 10:50:42;;;;;;;2.30;0.70;;;;;;;11.25;99.27;94771.63;2077674;28;20250;-74
2023/10/27 10:51:43;;;;;;;5.22;1.00;;;;;;;11.25;99.27;94771.63;2076686;28;20232;-74
2023/10/27 10:52:45;;;;;;;2.25;1.00;;;;;;;11.25;99.27;94771.63;2079456;28;20717;-73
2023/10/27 10:53:53;;;;;;;1.95;0.80;;;;;;;11.25;99.27;94771.63;2080121;28;20201;-73
2023/10/27 10:54:55;;;;;;;5.20;0.90;;;;;;;11.25;99.27;94771.63;2080538;28;20204;-74
2023/10/27 10:56:00;;;;;;;4.45;0.80;;;;;;;11.25;99.27;94771.63;2079900;28;20238;-73
2023/10/27 10:57:04;;;;;;;3.15;0.98;;;;;;;11.25;99.27;94771.63;2078913;28;20252;-74
2023/10/27 10:58:06;;;;;;;2.67;0.93;;;;;;;11.25;99.27;94771.63;2078355;28;20719;-74
2023/10/27 10:59:08;;;;;;;4.93;0.82;;;;;;;11.25;99.27;94771.63;2077858;28;20877;-75
2023/10/27 11:00:13;;;;;;;4.35;1.20;;;;;;;11.25;99.27;94771.63;2069836;28;20285;-75
2023/10/27 11:01:16;;;;;;;5.95;1.27;;;;;;;11.25;99.27;94771.63;2076843;28;20201;-75
2023/10/27 11:02:20;;;;;;;2.17;0.75;;;;;;;11.25;99.27;94771.63;2077334;28;20612;-75
2023/10/27 11:03:24;;;;;;;10.10;1.20;;;;;;;11.25;99.27;94771.63;2078762;28;20602;-74
2023/10/27 11:04:29;;;;;;;5.03;1.20;;;;;;;11.25;99.27;94771.63;2078994;28;20287;-74
2023/10/27 11:05:42;;;;;;;3.13;0.95;;;;;;;11.25;99.27;94771.63;2079528;28;20262;-74
2023/10/27 11:06:45;;;;;;;8.38;1.45;;;;;;;11.25;99.27;94771.63;2079673;28;20224;-75
2023/10/27 11:07:48;;;;;;;4.55;1.00;;;;;;;11.25;99.27;94771.63;2080490;28;20193;-74
2023/10/27 11:08:50;;;;;;;6.97;1.20;;;;;;;11.25;99.27;94771.63;2078370;28;20730;-74
2023/10/27 11:09:51;;;;;;;3.67;1.30;;;;;;;11.25;99.27;94771.63;2078231;28;20190;-74
2023/10/27 11:11:16;;;;;;;6.90;1.48;;;;;;;11.25;99.27;94771.63;2078096;28;21085;-75
2023/10/27 11:12:23;;;;;;;6.70;1.15;;;;;;;11.25;99.27;94771.63;2077477;28;20260;-75
2023/10/27 11:13:26;;;;;;;2.88;1.02;;;;;;;11.25;99.27;94771.63;2076792;28;20236;-76
2023/10/27 11:14:28;;;;;;;5.80;0.82;;;;;;;11.25;99.27;94771.63;2079869;28;20201;-74
2023/10/27 11:15:48;;;;;;;1.90;0.80;;;;;;;11.25;99.27;94771.63;2079685;28;20189;-74
2023/10/27 11:16:58;;;;;;;8.10;1.23;;;;;;;11.25;99.27;94771.63;2077789;28;20319;-75
2023/10/27 11:18:07;;;;;;;4.22;0.90;;;;;;;11.25;99.27;94771.63;2077673;28;20242;-75
2023/10/27 11:19:17;;;;;;;7.10;1.40;;;;;;;11.25;99.27;94771.63;2078808;28;20577;-74
2023/10/27 11:20:37;;;;;;;5.05;1.23;;;;;;;11.25;99.27;94771.63;2079102;28;20200;-74
2023/10/27 11:21:39;;;;;;;4.80;1.00;;;;;;;11.25;99.27;94771.63;2082490;28;20220;-73
2023/10/27 11:22:40;;;;;;;2.67;0.80;;;;;;;11.25;99.27;94771.63;2078259;28;20878;-73
2023/10/27 11:23:42;;;;;;;6.93;1.17;;;;;;;11.25;99.27;94771.63;2078213;28;20666;-73
2023/10/27 11:24:47;;;;;;;3.67;0.90;;;;;;;11.25;99.27;94771.63;2080232;28;20206;-73
2023/10/27 11:25:48;;;;;;;9.02;1.30;;;;;;;11.25;99.27;94771.63;2077636;28;20197;-72
2023/10/27 11:26:50;;;;;;;5.38;0.90;;;;;;;11.25;99.27;94771.63;2076274;28;20213;-73
2023/10/27 11:27:51;;;;;;;4.85;1.00;;;;;;;11.25;99.27;94771.63;2073712;28;20189;-73
2023/10/27 11:28:58;;;;;;;7.00;1.00;;;;;;;11.25;99.27;94771.63;2073390;28;20198;-73
2023/10/27 11:30:01;;;;;;;4.88;0.90;;;;;;;11.25;99.27;94771.63;2071701;28;20205;-73
2023/10/27 11:31:12;;;;;;;7.70;1.42;;;;;;;11.25;99.27;94771.63;2071795;28;20226;-73
2023/10/27 11:32:15;;;;;;;5.38;1.25;;;;;;;11.25;99.27;94771.63;2071626;28;20296;-73
2023/10/27 11:33:17;;;;;;;11.30;1.30;;;;;;;11.25;99.27;94771.63;2072321;28;20194;-72
2023/10/27 11:34:21;;;;;;;4.93;0.90;;;;;;;11.25;99.27;94771.63;2072861;28;20237;-72
2023/10/27 11:35:23;;;;;;;5.72;1.45;;;;;;;11.25;99.27;94771.63;2073305;28;20253;-72
2023/10/27 11:36:29;;;;;;;4.43;0.80;;;;;;;11.25;99.27;94771.63;2073606;28;20231;-72
2023/10/27 11:37:32;;;;;;;5.85;1.20;;;;;;;11.25;99.27;94771.63;2074623;28;20220;-72
2023/10/27 11:38:34;;;;;;;4.95;1.30;;;;;;;11.25;99.27;94771.63;2072347;28;20205;-72
2023/10/27 11:39:35;;;;;;;5.20;1.00;;;;;;;11.25;99.27;94771.63;2070965;28;20190;-72
2023/10/27 11:40:37;;;;;;;7.80;1.40;;;;;;;11.25;99.27;94771.63;2073507;28;20231;-72
2023/10/27 11:41:40;;;;;;;7.07;1.35;;;;;;;11.25;99.27;94771.63;2070905;28;20301;-72
2023/10/27 11:42:41;;;;;;;4.78;1.25;;;;;;;11.25;99.27;94771.63;2072858;28;20200;-72
2023/10/27 11:43:43;;;;;;;11.02;1.27;;;;;;;11.25;99.27;94771.63;2072174;28;20197;-72
2023/10/27 11:44:45;;;;;;;2.70;1.00;;;;;;;11.25;99.27;94771.63;2073112;28;20644;-72
2023/10/27 11:45:46;;;;;;;7.30;1.63;;;;;;;11.25;99.27;94771.63;2070628;28;20195;-71
2023/10/27 11:46:53;;;;;;;3.70;1.30;;;;;;;11.25;99.27;94771.63;2071203;28;20696;-72
2023/10/27 11:47:54;;;;;;;3.47;1.02;;;;;;;11.25;99.27;94771.63;2067743;28;20776;-73
2023/10/27 11:48:56;;;;;;;3.67;1.05;;;;;;;11.25;99.27;94771.63;2068974;28;20191;-73
2023/10/27 11:49:57;;;;;;;8.27;1.20;;;;;;;11.25;99.27;94771.63;2072621;28;20190;-74
2023/10/27 11:50:59;;;;;;;5.35;1.10;;;;;;;11.25;99.27;94771.63;2072427;28;20252;-72
2023/10/27 11:52:00;;;;;;;4.65;1.20;;;;;;;11.25;99.27;94771.63;2072312;28;20248;-72
2023/10/27 11:53:02;;;;;;;6.88;1.85;;;;;;;11.25;99.27;94771.63;2072684;28;20248;-72
2023/10/27 11:54:03;;;;;;;8.77;1.52;;;;;;;11.25;99.27;94771.63;2071518;28;20608;-71
2023/10/27 11:55:08;;;;;;;9.20;1.27;;;;;;;11.25;99.27;94771.63;2072749;28;20186;-72
2023/10/27 11:56:12;;;;;;;9.95;1.40;;;;;;;11.25;99.27;94771.63;2073875;28;20197;-72
2023/10/27 11:57:14;;;;;;;3.88;0.90;;;;;;;11.25;99.27;94771.63;2075786;28;20311;-71
2023/10/27 11:58:15;;;;;;;6.97;1.23;;;;;;;11.25;99.27;94771.63;2073171;28;20189;-71
2023/10/27 11:59:18;;;;;;;3.63;0.80;;;;;;;11.25;99.27;94771.63;2073377;28;20667;-71
2023/10/27 12:00:19;;;;;;;6.45;1.48;;;;;;;11.25;99.27;94771.63;2073090;28;20194;-72
2023/10/27 12:01:21;;;;;;;3.80;1.08;;;;;;;11.25;99.27;94771.63;2072121;28;20200;-72
2023/10/27 12:02:22;;;;;;;5.10;1.00;;;;;;;11.25;99.27;94771.63;2072282;28;20808;-72
2023/10/27 12:03:24;;;;;;;4.20;0.85;;;;;;;11.25;99.27;94771.63;2073546;28;20645;-72
2023/10/27 12:04:26;;;;;;;3.22;1.33;;;;;;;11.25;99.27;94771.63;2072166;28;20243;-72
2023/10/27 12:05:27;;;;;;;4.68;1.30;;;;;;;11.25;99.27;94771.63;2071463;28;20186;-71
2023/10/27 12:06:30;;;;;;;9.27;1.10;;;;;;;11.25;99.27;94771.63;2072951;28;20255;-72
2023/10/27 12:07:32;;;;;;;2.72;0.90;;;;;;;11.25;99.27;94771.63;2072319;28;20201;-72
2023/10/27 12:08:33;;;;;;;7.40;0.90;;;;;;;11.25;99.27;94771.63;2071797;28;20773;-72
2023/10/27 12:09:35;;;;;;;3.55;1.00;;;;;;;11.25;99.27;94771.63;2072356;28;20199;-71
2023/10/27 12:10:37;;;;;;;6.50;1.05;;;;;;;11.25;99.27;94771.63;2070227;28;20254;-72
2023/10/27 12:11:41;;;;;;;4.15;1.02;;;;;;;11.25;99.27;94771.63;2070951;28;20226;-72
2023/10/27 12:12:42;;;;;;;3.85;0.75;;;;;;;11.25;99.27;94771.63;2071664;28;20260;-72
2023/10/27 12:13:44;;;;;;;6.38;1.10;;;;;;;11.25;99.27;94771.63;2070985;28;20201;-72
2023/10/27 12:14:46;;;;;;;4.55;1.00;;;;;;;11.25;99.27;94771.63;2073440;28;20212;-71
2023/10/27 12:15:47;;;;;;;3.97;1.02;;;;;;;11.25;99.27;94771.63;2072898;28;20193;-72
2023/10/27 12:16:49;;;;;;;2.20;1.00;;;;;;;11.25;99.27;94771.63;2071885;28;20308;-72
2023/10/27 12:17:51;;;;;;;2.15;0.93;;;;;;;11.25;99.27;94771.63;2072786;28;20664;-72
2023/10/27 12:18:55;;;;;;;3.85;1.10;;;;;;;11.25;99.27;94771.63;2073585;28;20197;-71
2023/10/27 12:19:58;;;;;;;4.40;1.20;;;;;;;11.25;99.27;94771.63;2071893;28;20649;-72
2023/10/27 12:21:02;;;;;;;5.85;1.23;;;;;;;11.25;99.27;94771.63;2072488;28;20193;-73
2023/10/27 12:22:04;;;;;;;4.30;1.83;;;;;;;11.25;99.27;94771.63;2069586;28;20217;-74
2023/10/27 12:23:09;;;;;;;7.32;2.42;;;;;;;11.25;99.27;94771.63;2071732;28;20193;-70
2023/10/27 12:24:11;;;;;;;10.45;1.83;;;;;;;11.25;99.27;94771.63;2071545;28;20224;-72
2023/10/27 12:25:12;;;;;;;2.90;1.23;;;;;;;11.25;99.27;94771.63;2072312;28;20196;-71
2023/10/27 12:26:14;;;;;;;3.58;0.80;;;;;;;11.25;99.27;94771.63;2072508;28;20825;-70
2023/10/27 12:27:15;;;;;;;6.28;1.17;;;;;;;11.25;99.27;94771.63;2071565;28;20638;-70
2023/10/27 12:28:17;;;;;;;2.55;0.93;;;;;;;11.25;99.27;94771.63;2074689;28;20243;-71
2023/10/27 12:29:22;;;;;;;4.18;0.90;;;;;;;11.25;99.27;94771.63;2072902;28;20197;-70
2023/10/27 12:30:24;;;;;;;2.90;1.02;;;;;;;11.25;99.27;94771.63;2073841;28;20193;-71
2023/10/27 12:31:25;;;;;;;3.08;0.85;;;;;;;11.25;99.27;94771.63;2072815;28;20190;-71
2023/10/27 12:32:32;;;;;;;1.58;0.70;;;;;;;11.25;99.27;94771.63;2072622;28;20221;-70
2023/10/27 12:33:34;;;;;;;2.65;0.90;;;;;;;11.25;99.27;94771.63;2072415;28;20197;-71
2023/10/27 12:34:35;;;;;;;1.77;0.80;;;;;;;11.25;99.27;94771.63;2072746;28;20201;-70
2023/10/27 12:35:37;;;;;;;6.38;0.80;;;;;;;11.25;99.27;94771.63;2072241;28;20228;-71
2023/10/27 12:36:39;;;;;;;3.17;0.77;;;;;;;11.25;99.27;94771.63;2071876;28;20237;-71
2023/10/27 12:37:42;;;;;;;5.47;0.70;;;;;;;11.25;99.27;94771.63;2073996;28;20780;-71
2023/10/27 12:38:44;;;;;;;3.88;0.70;;;;;;;11.25;99.27;94771.63;2074331;28;20250;-70
2023/10/27 12:39:45;;;;;;;1.92;0.70;;;;;;;11.25;99.27;94771.63;2073634;28;20200;-71
2023/10/27 12:40:48;;;;;;;2.58;0.70;;;;;;;11.25;99.27;94771.63;2071501;28;20201;-70
2023/10/27 12:41:51;;;;;;;9.02;1.02;;;;;;;11.25;99.27;94771.63;2072019;28;20496;-71
2023/10/27 12:42:52;;;;;;;4.20;0.98;;;;;;;11.25;99.27;94771.63;2070950;28;20227;-70
2023/10/27 12:43:55;;;;;;;2.28;0.70;;;;;;;11.25;99.27;94771.63;2073013;28;20208;-71
2023/10/27 12:44:57;;;;;;;1.85;0.70;;;;;;;11.25;99.27;94771.63;2072414;28;20207;-70
2023/10/27 12:46:04;;;;;;;2.65;0.80;;;;;;;11.25;99.27;94771.63;2071157;28;20299;-71
2023/10/27 12:47:07;;;;;;;1.70;0.75;;;;;;;11.25;99.27;94771.63;2073100;28;20269;-71
2023/10/27 12:48:09;;;;;;;2.40;0.60;;;;;;;11.25;99.27;94771.63;2072995;28;20201;-70
2023/10/27 12:49:11;;;;;;;2.08;0.70;;;;;;;11.25;99.27;94771.63;2072377;28;20205;-71
2023/10/27 12:50:12;;;;;;;2.05;0.80;;;;;;;11.25;99.27;94771.63;2071227;28;20549;-70
2023/10/27 12:51:16;;;;;;;1.90;0.60;;;;;;;11.25;99.27;94771.63;2070094;28;20667;-70
2023/10/27 12:52:17;;;;;;;2.10;0.70;;;;;;;11.25;99.27;94771.63;2071669;28;20224;-71
2023/10/27 12:53:19;;;;;;;1.10;0.55;;;;;;;11.25;99.27;94771.63;2074264;28;20205;-70
2023/10/27 12:54:21;;;;;;;7.80;1.00;;;;;;;11.25;99.27;94771.63;2074635;28;20331;-70
2023/10/27 12:55:23;;;;;;;1.77;0.85;;;;;;;11.25;99.27;98102.72;2073780;28;20216;-70
2023/10/27 12:56:24;;;;;;;2.03;0.70;;;;;;;11.25;99.27;94771.63;2073849;28;20212;-70
2023/10/27 12:57:26;;;;;;;5.60;0.70;;;;;;;11.25;99.27;94771.63;2073569;28;20246;-70
2023/10/27 12:58:29;;;;;;;1.42;0.70;;;;;;;11.25;99.27;94771.63;2072158;28;20244;-71
2023/10/27 12:59:31;;;;;;;5.75;0.70;;;;;;;11.25;99.27;94771.63;2072789;28;20283;-71
2023/10/27 13:00:34;;;;;;;2.17;0.70;;;;;;;11.25;99.27;94771.63;2073869;28;20280;-70
2023/10/27 13:01:36;;;;;;;1.90;0.70;;;;;;;11.25;99.27;94771.63;2071710;28;20232;-70
2023/10/27 13:02:38;;;;;;;3.00;0.85;;;;;;;11.25;99.27;94771.63;2072853;28;20276;-70
2023/10/27 13:03:39;;;;;;;2.80;0.90;;;;;;;11.25;99.27;94771.63;2072625;28;20284;-65
2023/10/27 13:04:41;;;;;;;5.97;0.70;;;;;;;11.25;99.27;94771.63;2072201;28;20202;-65
2023/10/27 13:05:43;;;;;;;5.10;0.90;;;;;;;11.25;99.27;94771.63;2073239;28;20334;-65
2023/10/27 13:06:45;;;;;;;4.32;0.70;;;;;;;11.25;99.27;94771.63;2071475;28;20223;-66
2023/10/27 13:07:46;;;;;;;1.77;0.90;;;;;;;11.25;99.27;94771.63;2069903;28;20292;-65
2023/10/27 13:08:48;;;;;;;2.58;0.90;;;;;;;11.25;99.27;94771.63;2072973;28;20196;-66
2023/10/27 13:09:49;;;;;;;2.65;1.00;;;;;;;11.25;99.27;94771.63;2072260;28;20228;-66
2023/10/27 13:10:51;;;;;;;1.55;0.60;;;;;;;11.25;99.27;94771.63;2074020;28;20223;-66
2023/10/27 13:11:54;;;;;;;2.38;0.70;;;;;;;11.25;99.27;94771.63;2074267;28;20227;-66
2023/10/27 13:13:00;;;;;;;2.10;0.85;;;;;;;11.25;99.27;94771.63;2074691;28;20563;-66
2023/10/27 13:14:02;;;;;;;1.60;0.70;;;;;;;11.25;99.27;94771.63;2075972;28;20247;-65
2023/10/27 13:15:14;;;;;;;4.15;1.05;;;;;;;11.25;99.27;94771.63;2075075;28;20205;-65
2023/10/27 13:16:16;;;;;;;2.10;0.82;;;;;;;11.25;99.27;94771.63;2066887;28;20689;-65
2023/10/27 13:17:17;;;;;;;1.75;0.80;;;;;;;11.25;99.27;94771.63;2071497;28;20385;-66
2023/10/27 13:18:19;;;;;;;4.15;1.00;;;;;;;11.25;99.27;94771.63;2073578;28;20217;-65
2023/10/27 13:19:21;;;;;;;2.70;0.98;;;;;;;11.25;99.27;73756.34;2072636;28;20193;-66
2023/10/27 13:20:22;;;;;;;2.15;0.70;;;;;;;11.25;99.27;94771.63;2070757;28;20670;-66
2023/10/27 13:21:24;;;;;;;3.60;0.80;;;;;;;11.25;99.27;94771.63;2071879;28;20197;-65
2023/10/27 13:22:26;;;;;;;6.47;0.60;;;;;;;11.25;99.27;94771.63;2072079;28;20197;-64
2023/10/27 13:23:27;;;;;;;2.95;0.75;;;;;;;11.25;99.27;94771.63;2070566;28;20194;-65
2023/10/27 13:24:29;;;;;;;5.10;1.15;;;;;;;11.25;99.27;94771.63;2071402;28;20200;-66
2023/10/27 13:25:30;;;;;;;5.10;1.20;;;;;;;11.25;99.27;94771.63;2072659;28;20186;-64
2023/10/27 13:26:32;;;;;;;3.50;0.90;;;;;;;11.25;99.27;94771.63;2071580;28;20236;-66
2023/10/27 13:27:34;;;;;;;2.92;1.10;;;;;;;11.25;99.27;94771.63;2071216;28;20285;-65
2023/10/27 13:28:36;;;;;;;4.95;1.17;;;;;;;11.25;99.27;94771.63;2070958;28;20793;-66
2023/10/27 13:29:37;;;;;;;3.15;0.80;;;;;;;11.25;99.27;94771.63;2071876;28;20190;-66
2023/10/27 13:30:39;;;;;;;3.35;1.35;;;;;;;11.25;99.27;94771.63;2070024;28;20196;-66
2023/10/27 13:31:44;;;;;;;3.28;0.90;;;;;;;11.25;99.27;94771.63;2068656;28;20228;-65
2023/10/27 13:32:46;;;;;;;4.82;0.80;;;;;;;11.25;99.27;94771.63;2070925;28;20199;-65
2023/10/27 13:33:47;;;;;;;3.85;0.70;;;;;;;11.25;99.27;94771.63;2072021;28;20530;-65
2023/10/27 13:34:49;;;;;;;3.05;0.95;;;;;;;11.25;99.27;94771.63;2072120;28;20196;-65
2023/10/27 13:36:00;;;;;;;1.88;0.70;;;;;;;11.25;99.27;94771.63;2072798;28;20224;-65
2023/10/27 13:37:02;;;;;;;2.15;0.70;;;;;;;11.25;99.27;94771.63;2071902;28;20808;-65
2023/10/27 13:38:09;;;;;;;4.20;0.70;;;;;;;11.25;99.27;94771.63;2071464;28;20223;-65
2023/10/27 13:39:10;;;;;;;4.13;0.80;;;;;;;11.25;99.27;94771.63;2071573;28;20219;-66
2023/10/27 13:40:20;;;;;;;2.63;0.80;;;;;;;11.25;99.27;94771.63;2071993;28;20191;-66
2023/10/27 13:41:21;;;;;;;3.50;0.77;;;;;;;11.25;99.27;94771.63;2070330;28;20195;-66
2023/10/27 13:42:23;;;;;;;3.17;0.80;;;;;;;11.25;99.27;94771.63;2072419;28;20195;-66
2023/10/27 13:43:27;;;;;;;1.60;0.90;;;;;;;11.25;99.27;94771.63;2072759;28;20200;-65
2023/10/27 13:44:28;;;;;;;3.50;0.93;;;;;;;11.25;99.27;94771.63;2071284;28;20189;-65
2023/10/27 13:45:35;;;;;;;3.30;0.90;;;;;;;11.25;99.27;94771.63;2065920;28;20218;-66
2023/10/27 13:46:37;;;;;;;3.03;0.63;;;;;;;11.25;99.27;94771.63;2065352;28;20251;-64
2023/10/27 13:47:39;;;;;;;20.20;8.85;;;;;;;11.25;99.27;94771.63;2072742;28;20648;-64
2023/10/27 13:48:45;;;;;;;7.10;2.90;;;;;;;11.25;99.27;94771.63;2071602;28;20203;-67
2023/10/27 13:49:52;;;;;;;5.97;1.40;;;;;;;11.25;99.27;94771.63;2070685;28;20196;-66
2023/10/27 13:51:05;;;;;;;2.85;1.00;;;;;;;11.25;99.27;94771.63;2071607;28;20235;-66
2023/10/27 13:52:07;;;;;;;5.72;0.80;;;;;;;11.25;99.27;94771.63;2070813;28;20322;-66
2023/10/27 13:53:09;;;;;;;2.38;0.77;;;;;;;11.25;99.27;94771.63;2073503;28;20647;-65
2023/10/27 13:54:10;;;;;;;2.05;0.70;;;;;;;11.25;99.27;94771.63;2071254;28;20436;-66
2023/10/27 13:55:12;;;;;;;2.22;0.75;;;;;;;11.25;99.27;94771.63;2071184;28;20191;-66
2023/10/27 13:56:14;;;;;;;2.38;0.70;;;;;;;11.25;99.27;94771.63;2073477;28;20190;-66
2023/10/27 13:57:19;;;;;;;1.65;0.80;;;;;;;11.25;99.27;94771.63;2073474;28;20192;-66
2023/10/27 13:58:21;;;;;;;2.88;0.88;;;;;;;11.25;99.27;94771.63;2073866;28;20220;-65
2023/10/27 13:59:23;;;;;;;3.60;1.00;;;;;;;11.25;99.27;94771.63;2067128;28;20213;-65
2023/10/27 14:00:27;;;;;;;2.83;0.77;;;;;;;11.25;99.27;94771.63;2068239;28;20607;-66
2023/10/27 14:01:29;;;;;;;4.15;1.02;;;;;;;11.25;99.27;94771.63;2072557;28;20576;-64
2023/10/27 14:02:30;;;;;;;3.80;0.98;;;;;;;11.25;99.27;94771.63;2073545;28;20429;-65
2023/10/27 14:03:32;;;;;;;2.83;0.80;;;;;;;11.25;99.27;94771.63;2070914;28;20236;-66
2023/10/27 14:04:35;;;;;;;1.20;0.60;;;;;;;11.25;99.27;94771.63;2070416;28;20232;-65
2023/10/27 14:05:37;;;;;;;3.08;0.60;;;;;;;11.25;99.27;94771.63;2070243;28;20204;-65
2023/10/27 14:06:46;;;;;;;2.80;1.00;;;;;;;11.25;99.27;94771.63;2072252;28;20260;-65
2023/10/27 14:07:47;;;;;;;1.75;0.80;;;;;;;11.25;99.27;94771.63;2072101;28;20193;-65
2023/10/27 14:08:49;;;;;;;2.28;0.70;;;;;;;11.25;99.27;94771.63;2072270;28;20294;-67
2023/10/27 14:09:51;;;;;;;2.08;0.60;;;;;;;11.25;99.27;94771.63;2063129;28;20709;-66
2023/10/27 14:10:53;;;;;;;4.93;0.80;;;;;;;11.25;99.27;94771.63;2063415;28;20205;-66
2023/10/27 14:11:56;;;;;;;5.18;2.45;;;;;;;11.25;99.27;94771.63;2069462;28;20240;-65
2023/10/27 14:12:57;;;;;;;2.25;0.80;;;;;;;11.25;99.27;94771.63;2072420;28;20517;-66
2023/10/27 14:13:59;;;;;;;2.00;0.90;;;;;;;11.25;99.27;94771.63;2071444;28;20297;-65
2023/10/27 14:15:01;;;;;;;2.25;0.70;;;;;;;11.25;99.27;94771.63;2071417;28;20209;-65
2023/10/27 14:16:04;;;;;;;4.60;0.85;;;;;;;11.25;99.27;94771.63;2071610;28;20229;-66
2023/10/27 14:17:05;;;;;;;2.88;0.77;;;;;;;11.25;99.27;94771.63;2069843;28;20677;-65
2023/10/27 14:18:07;;;;;;;4.88;0.77;;;;;;;11.25;99.27;94771.63;2071227;28;20286;-66
2023/10/27 14:19:09;;;;;;;1.60;0.70;;;;;;;11.25;99.27;94771.63;2071810;28;20201;-65
2023/10/27 14:20:10;;;;;;;3.70;0.98;;;;;;;11.25;99.27;94771.63;2072091;28;20201;-66
2023/10/27 14:21:12;;;;;;;3.28;0.90;;;;;;;11.25;99.27;94771.63;2070272;28;20232;-66
2023/10/27 14:22:13;;;;;;;4.22;0.85;;;;;;;11.25;99.27;94771.63;2071124;28;20254;-65
2023/10/27 14:23:16;;;;;;;1.67;0.63;;;;;;;11.25;99.27;94771.63;2072367;28;20201;-66
2023/10/27 14:24:18;;;;;;;3.85;1.00;;;;;;;11.25;99.27;94771.63;2071323;28;20195;-65
2023/10/27 14:25:20;;;;;;;2.67;0.80;;;;;;;11.25;99.27;94771.63;2071641;28;20188;-65
2023/10/27 14:26:21;;;;;;;3.45;0.82;;;;;;;11.25;99.27;94771.63;2071439;28;20332;-65
2023/10/27 14:27:23;;;;;;;1.60;0.70;;;;;;;11.25;99.27;94771.63;2070803;28;20350;-66
2023/10/27 14:28:25;;;;;;;3.03;1.00;;;;;;;11.25;99.27;94771.63;2070871;28;20195;-65
2023/10/27 14:29:27;;;;;;;4.70;0.90;;;;;;;11.25;99.27;94771.63;2074040;28;20205;-66
2023/10/27 14:30:28;;;;;;;2.97;0.90;;;;;;;11.25;99.27;94771.63;2074137;28;20189;-66
2023/10/27 14:31:32;;;;;;;2.78;0.85;;;;;;;11.25;99.27;94771.63;2072856;28;20637;-66
2023/10/27 14:32:35;;;;;;;3.40;0.85;;;;;;;11.25;99.27;94771.63;2072261;28;20197;-66
2023/10/27 14:33:37;;;;;;;6.05;1.10;;;;;;;11.25;99.27;94771.63;2072350;28;20221;-65
2023/10/27 14:34:40;;;;;;;1.40;0.73;;;;;;;11.25;99.27;94771.63;2071456;28;20205;-65
2023/10/27 14:35:42;;;;;;;6.00;1.08;;;;;;;11.25;99.27;94771.63;2071671;28;20197;-65
2023/10/27 14:36:43;;;;;;;6.13;0.90;;;;;;;11.25;99.27;94771.63;2078441;28;20244;-65
2023/10/27 14:37:46;;;;;;;1.55;0.60;;;;;;;11.25;99.27;94771.63;2072873;28;20799;-66
2023/10/27 14:38:48;;;;;;;1.60;0.70;;;;;;;11.25;99.27;94771.63;2070660;28;20210;-66
2023/10/27 14:39:50;;;;;;;2.75;0.80;;;;;;;11.25;99.27;94771.63;2070366;28;20684;-66
2023/10/27 14:40:52;;;;;;;2.17;0.70;;;;;;;11.25;99.27;94771.63;2071365;28;20272;-65
2023/10/27 14:41:54;;;;;;;5.05;1.48;;;;;;;11.25;99.27;94771.63;2070540;28;20232;-66
2023/10/27 14:42:58;;;;;;;2.00;0.70;;;;;;;11.25;99.27;94771.63;2070957;28;20205;-66
2023/10/27 14:44:00;;;;;;;13.40;7.00;;;;;;;11.25;99.27;94771.63;2070367;28;20197;-65
2023/10/27 14:45:04;;;;;;;3.00;0.95;;;;;;;11.25;99.27;94771.63;2072153;28;20817;-64
2023/10/27 14:46:08;;;;;;;7.10;1.98;;;;;;;11.25;99.27;94771.63;2070657;28;20200;-63
2023/10/27 14:47:09;;;;;;;2.25;0.70;;;;;;;11.25;99.27;94771.63;2072937;28;20221;-64
2023/10/27 14:48:11;;;;;;;4.15;0.60;;;;;;;11.25;99.27;94771.63;2073150;28;20201;-65
2023/10/27 14:49:13;;;;;;;4.60;0.68;;;;;;;11.25;99.27;94771.63;2071674;28;20208;-64
2023/10/27 14:50:15;;;;;;;1.20;0.60;;;;;;;11.25;99.27;94771.63;2071420;28;20196;-64
2023/10/27 14:51:19;;;;;;;2.30;0.75;;;;;;;11.25;99.27;94771.63;2071285;28;20210;-64
2023/10/27 14:52:20;;;;;;;2.55;0.70;;;;;;;11.25;99.27;94771.63;2070542;28;20197;-63
2023/10/27 14:53:22;;;;;;;4.10;0.95;;;;;;;11.25;99.27;94771.63;2070443;28;20201;-63
2023/10/27 14:54:23;;;;;;;2.05;0.70;;;;;;;11.25;99.27;94771.63;2071327;28;20188;-63
2023/10/27 14:55:25;;;;;;;1.75;0.70;;;;;;;11.25;99.27;94771.63;2070714;28;20193;-63
2023/10/27 14:56:27;;;;;;;2.20;1.10;;;;;;;11.25;99.27;94771.63;2070284;28;20189;-63
2023/10/27 14:57:28;;;;;;;1.50;0.65;;;;;;;11.25;99.27;94771.63;2072009;28;20222;-63
2023/10/27 14:58:32;;;;;;;3.95;0.70;;;;;;;11.25;99.27;94771.63;2072963;28;20198;-63
2023/10/27 14:59:34;;;;;;;5.65;2.75;;;;;;;11.25;99.27;94771.63;2072945;28;20200;-64
2023/10/27 15:00:36;;;;;;;3.05;0.68;;;;;;;11.25;99.27;94771.63;2070749;28;20273;-64
2023/10/27 15:01:38;;;;;;;5.00;0.95;;;;;;;11.25;99.27;94771.63;2070066;28;20690;-64
2023/10/27 15:02:39;;;;;;;4.40;0.70;;;;;;;11.25;99.27;94771.63;2073461;28;20201;-64
2023/10/27 15:03:41;;;;;;;1.45;0.60;;;;;;;11.25;99.27;94771.63;2073912;28;20197;-64
2023/10/27 15:04:43;;;;;;;4.65;0.70;;;;;;;11.25;99.27;94771.63;2072268;28;20205;-63
2023/10/27 15:05:45;;;;;;;1.90;0.93;;;;;;;11.25;99.27;94771.63;2073972;28;20192;-63
2023/10/27 15:06:47;;;;;;;5.25;0.75;;;;;;;11.25;99.27;94771.63;2073232;28;20229;-64
2023/10/27 15:07:49;;;;;;;2.05;0.70;;;;;;;11.25;99.27;94771.63;2072234;28;20284;-63